sensor_id;sensor_type;location;lat;lon;timestamp;P1;durP1;ratioP1;P2;durP2;ratioP2
43676;SDS011;29275;48.800;18.102;2024-03-02T00:02:16;48.10;;;30.45;;
43676;SDS011;29275;48.800;18.102;2024-03-02T00:05:21;48.50;;;31.75;;
43676;SDS011;29275;48.800;18.102;2024-03-02T00:08:25;48.50;;;30.58;;
43676;SDS011;29275;48.800;18.102;2024-03-02T00:11:28;52.08;;;30.85;;
43676;SDS011;29275;48.800;18.102;2024-03-02T00:14:34;33.53;;;21.70;;
43676;SDS011;29275;48.800;18.102;2024-03-02T00:17:37;29.92;;;19.08;;
43676;SDS011;29275;48.800;18.102;2024-03-02T00:20:40;29.55;;;19.15;;
43676;SDS011;29275;48.800;18.102;2024-03-02T00:23:47;45.08;;;28.90;;
43676;SDS011;29275;48.800;18.102;2024-03-02T00:26:52;44.63;;;26.88;;
43676;SDS011;29275;48.800;18.102;2024-03-02T00:29:59;45.35;;;29.10;;
43676;SDS011;29275;48.800;18.102;2024-03-02T00:33:06;36.30;;;23.52;;
43676;SDS011;29275;48.800;18.102;2024-03-02T00:36:10;36.58;;;22.30;;
43676;SDS011;29275;48.800;18.102;2024-03-02T00:42:23;35.95;;;24.13;;
43676;SDS011;29275;48.800;18.102;2024-03-02T00:45:26;35.53;;;24.85;;
43676;SDS011;29275;48.800;18.102;2024-03-02T00:48:29;33.33;;;22.15;;
43676;SDS011;29275;48.800;18.102;2024-03-02T00:51:34;25.17;;;18.25;;
43676;SDS011;29275;48.800;18.102;2024-03-02T00:54:37;29.77;;;19.95;;
43676;SDS011;29275;48.800;18.102;2024-03-02T00:57:40;30.30;;;21.58;;
43676;SDS011;29275;48.800;18.102;2024-03-02T01:00:48;31.95;;;23.42;;
43676;SDS011;29275;48.800;18.102;2024-03-02T01:03:51;32.70;;;22.45;;
43676;SDS011;29275;48.800;18.102;2024-03-02T01:06:55;26.05;;;17.10;;
43676;SDS011;29275;48.800;18.102;2024-03-02T01:09:59;24.20;;;17.98;;
43676;SDS011;29275;48.800;18.102;2024-03-02T01:13:02;23.48;;;14.63;;
43676;SDS011;29275;48.800;18.102;2024-03-02T01:16:07;20.33;;;13.88;;
43676;SDS011;29275;48.800;18.102;2024-03-02T01:19:12;27.20;;;17.70;;
43676;SDS011;29275;48.800;18.102;2024-03-02T01:22:17;26.45;;;16.45;;
43676;SDS011;29275;48.800;18.102;2024-03-02T01:25:26;26.70;;;17.95;;
43676;SDS011;29275;48.800;18.102;2024-03-02T01:28:29;23.45;;;16.48;;
43676;SDS011;29275;48.800;18.102;2024-03-02T01:31:32;27.73;;;15.65;;
43676;SDS011;29275;48.800;18.102;2024-03-02T01:34:35;20.20;;;14.73;;
43676;SDS011;29275;48.800;18.102;2024-03-02T01:37:38;18.67;;;12.73;;
43676;SDS011;29275;48.800;18.102;2024-03-02T01:40:41;20.30;;;11.32;;
43676;SDS011;29275;48.800;18.102;2024-03-02T01:43:44;16.83;;;10.85;;
43676;SDS011;29275;48.800;18.102;2024-03-02T01:46:50;21.90;;;10.57;;
43676;SDS011;29275;48.800;18.102;2024-03-02T01:49:53;16.30;;;9.52;;
43676;SDS011;29275;48.800;18.102;2024-03-02T01:52:56;20.52;;;13.77;;
43676;SDS011;29275;48.800;18.102;2024-03-02T01:55:59;21.17;;;11.90;;
43676;SDS011;29275;48.800;18.102;2024-03-02T01:59:02;17.48;;;10.90;;
43676;SDS011;29275;48.800;18.102;2024-03-02T02:02:06;14.52;;;9.02;;
43676;SDS011;29275;48.800;18.102;2024-03-02T02:05:09;14.13;;;9.52;;
43676;SDS011;29275;48.800;18.102;2024-03-02T02:08:12;15.85;;;10.45;;
43676;SDS011;29275;48.800;18.102;2024-03-02T02:11:21;18.10;;;12.30;;
43676;SDS011;29275;48.800;18.102;2024-03-02T02:14:24;16.30;;;11.07;;
43676;SDS011;29275;48.800;18.102;2024-03-02T02:17:26;17.48;;;11.43;;
43676;SDS011;29275;48.800;18.102;2024-03-02T02:20:29;20.90;;;10.68;;
43676;SDS011;29275;48.800;18.102;2024-03-02T02:23:32;24.42;;;13.00;;
43676;SDS011;29275;48.800;18.102;2024-03-02T02:26:35;18.58;;;12.00;;
43676;SDS011;29275;48.800;18.102;2024-03-02T02:29:38;20.88;;;10.73;;
43676;SDS011;29275;48.800;18.102;2024-03-02T02:32:41;14.52;;;9.75;;
43676;SDS011;29275;48.800;18.102;2024-03-02T02:39:13;18.27;;;10.85;;
43676;SDS011;29275;48.800;18.102;2024-03-02T02:42:20;16.98;;;9.73;;
43676;SDS011;29275;48.800;18.102;2024-03-02T02:45:23;17.02;;;10.00;;
43676;SDS011;29275;48.800;18.102;2024-03-02T02:48:26;18.00;;;9.77;;
43676;SDS011;29275;48.800;18.102;2024-03-02T02:51:29;16.10;;;10.25;;
43676;SDS011;29275;48.800;18.102;2024-03-02T02:54:32;22.42;;;10.75;;
43676;SDS011;29275;48.800;18.102;2024-03-02T02:57:35;13.68;;;8.80;;
43676;SDS011;29275;48.800;18.102;2024-03-02T03:00:40;16.80;;;9.10;;
43676;SDS011;29275;48.800;18.102;2024-03-02T03:03:45;12.52;;;8.38;;
43676;SDS011;29275;48.800;18.102;2024-03-02T03:06:51;17.65;;;9.32;;
43676;SDS011;29275;48.800;18.102;2024-03-02T03:09:55;13.32;;;9.07;;
43676;SDS011;29275;48.800;18.102;2024-03-02T03:12:59;16.50;;;10.00;;
43676;SDS011;29275;48.800;18.102;2024-03-02T03:16:03;16.88;;;9.93;;
43676;SDS011;29275;48.800;18.102;2024-03-02T03:19:10;18.08;;;9.90;;
43676;SDS011;29275;48.800;18.102;2024-03-02T03:22:12;17.92;;;9.68;;
43676;SDS011;29275;48.800;18.102;2024-03-02T03:25:17;15.75;;;9.43;;
43676;SDS011;29275;48.800;18.102;2024-03-02T03:28:20;16.38;;;8.70;;
43676;SDS011;29275;48.800;18.102;2024-03-02T03:31:23;18.33;;;9.95;;
43676;SDS011;29275;48.800;18.102;2024-03-02T03:34:28;20.80;;;9.68;;
43676;SDS011;29275;48.800;18.102;2024-03-02T03:37:31;17.77;;;9.60;;
43676;SDS011;29275;48.800;18.102;2024-03-02T03:40:37;17.98;;;10.27;;
43676;SDS011;29275;48.800;18.102;2024-03-02T03:43:40;18.05;;;10.88;;
43676;SDS011;29275;48.800;18.102;2024-03-02T03:46:44;17.67;;;10.32;;
43676;SDS011;29275;48.800;18.102;2024-03-02T03:49:48;17.92;;;8.98;;
43676;SDS011;29275;48.800;18.102;2024-03-02T03:52:51;15.45;;;11.00;;
43676;SDS011;29275;48.800;18.102;2024-03-02T03:55:54;17.52;;;11.02;;
43676;SDS011;29275;48.800;18.102;2024-03-02T03:58:57;16.02;;;10.02;;
43676;SDS011;29275;48.800;18.102;2024-03-02T04:02:02;16.80;;;9.95;;
43676;SDS011;29275;48.800;18.102;2024-03-02T04:05:07;22.80;;;13.68;;
43676;SDS011;29275;48.800;18.102;2024-03-02T04:08:17;18.40;;;11.85;;
43676;SDS011;29275;48.800;18.102;2024-03-02T04:11:27;22.23;;;16.08;;
43676;SDS011;29275;48.800;18.102;2024-03-02T04:14:30;25.73;;;15.88;;
43676;SDS011;29275;48.800;18.102;2024-03-02T04:17:33;26.63;;;16.02;;
43676;SDS011;29275;48.800;18.102;2024-03-02T04:20:40;28.58;;;15.52;;
43676;SDS011;29275;48.800;18.102;2024-03-02T04:23:43;25.05;;;16.15;;
43676;SDS011;29275;48.800;18.102;2024-03-02T04:26:46;25.58;;;15.07;;
43676;SDS011;29275;48.800;18.102;2024-03-02T04:29:49;29.45;;;15.65;;
43676;SDS011;29275;48.800;18.102;2024-03-02T04:32:54;25.40;;;15.98;;
43676;SDS011;29275;48.800;18.102;2024-03-02T04:35:58;27.67;;;16.48;;
43676;SDS011;29275;48.800;18.102;2024-03-02T04:39:01;21.60;;;15.75;;
43676;SDS011;29275;48.800;18.102;2024-03-02T04:42:05;23.23;;;14.73;;
43676;SDS011;29275;48.800;18.102;2024-03-02T04:45:08;21.92;;;13.32;;
43676;SDS011;29275;48.800;18.102;2024-03-02T04:48:14;18.23;;;11.65;;
43676;SDS011;29275;48.800;18.102;2024-03-02T04:51:17;20.40;;;13.35;;
43676;SDS011;29275;48.800;18.102;2024-03-02T04:54:20;24.42;;;17.23;;
43676;SDS011;29275;48.800;18.102;2024-03-02T04:57:26;19.70;;;13.10;;
43676;SDS011;29275;48.800;18.102;2024-03-02T05:00:29;23.73;;;15.30;;
43676;SDS011;29275;48.800;18.102;2024-03-02T05:03:33;20.73;;;14.13;;
43676;SDS011;29275;48.800;18.102;2024-03-02T05:06:40;40.25;;;20.88;;
43676;SDS011;29275;48.800;18.102;2024-03-02T05:09:51;26.63;;;15.98;;
43676;SDS011;29275;48.800;18.102;2024-03-02T05:12:54;26.80;;;16.48;;
43676;SDS011;29275;48.800;18.102;2024-03-02T05:16:02;25.75;;;14.93;;
43676;SDS011;29275;48.800;18.102;2024-03-02T05:19:10;28.40;;;16.65;;
43676;SDS011;29275;48.800;18.102;2024-03-02T05:22:15;20.55;;;13.57;;
43676;SDS011;29275;48.800;18.102;2024-03-02T05:25:22;23.00;;;13.40;;
43676;SDS011;29275;48.800;18.102;2024-03-02T05:28:33;23.33;;;13.23;;
43676;SDS011;29275;48.800;18.102;2024-03-02T05:31:36;28.23;;;14.52;;
43676;SDS011;29275;48.800;18.102;2024-03-02T05:34:39;16.25;;;10.27;;
43676;SDS011;29275;48.800;18.102;2024-03-02T05:37:42;21.85;;;13.23;;
43676;SDS011;29275;48.800;18.102;2024-03-02T05:40:45;17.70;;;11.35;;
43676;SDS011;29275;48.800;18.102;2024-03-02T05:43:48;19.35;;;11.40;;
43676;SDS011;29275;48.800;18.102;2024-03-02T05:46:52;20.38;;;12.00;;
43676;SDS011;29275;48.800;18.102;2024-03-02T05:49:55;19.25;;;12.43;;
43676;SDS011;29275;48.800;18.102;2024-03-02T05:52:58;22.77;;;15.57;;
43676;SDS011;29275;48.800;18.102;2024-03-02T05:56:01;25.02;;;16.45;;
43676;SDS011;29275;48.800;18.102;2024-03-02T05:59:09;21.52;;;15.35;;
43676;SDS011;29275;48.800;18.102;2024-03-02T06:02:19;24.98;;;16.33;;
43676;SDS011;29275;48.800;18.102;2024-03-02T06:05:22;21.52;;;13.40;;
43676;SDS011;29275;48.800;18.102;2024-03-02T06:08:25;23.75;;;14.88;;
43676;SDS011;29275;48.800;18.102;2024-03-02T06:11:28;21.80;;;12.63;;
43676;SDS011;29275;48.800;18.102;2024-03-02T06:14:38;19.50;;;12.48;;
43676;SDS011;29275;48.800;18.102;2024-03-02T06:17:41;21.05;;;14.70;;
43676;SDS011;29275;48.800;18.102;2024-03-02T06:20:45;18.90;;;12.77;;
43676;SDS011;29275;48.800;18.102;2024-03-02T06:23:48;21.40;;;13.25;;
43676;SDS011;29275;48.800;18.102;2024-03-02T06:26:51;20.20;;;13.25;;
43676;SDS011;29275;48.800;18.102;2024-03-02T06:29:55;29.17;;;16.30;;
43676;SDS011;29275;48.800;18.102;2024-03-02T06:32:58;24.05;;;15.40;;
43676;SDS011;29275;48.800;18.102;2024-03-02T06:36:01;19.73;;;13.82;;
43676;SDS011;29275;48.800;18.102;2024-03-02T06:39:04;27.77;;;15.82;;
43676;SDS011;29275;48.800;18.102;2024-03-02T06:42:11;22.27;;;13.70;;
43676;SDS011;29275;48.800;18.102;2024-03-02T06:45:14;22.23;;;14.40;;
43676;SDS011;29275;48.800;18.102;2024-03-02T06:48:17;25.00;;;16.33;;
43676;SDS011;29275;48.800;18.102;2024-03-02T06:51:22;29.23;;;19.50;;
43676;SDS011;29275;48.800;18.102;2024-03-02T06:54:27;35.08;;;21.48;;
43676;SDS011;29275;48.800;18.102;2024-03-02T06:57:31;38.55;;;26.15;;
43676;SDS011;29275;48.800;18.102;2024-03-02T07:00:42;44.67;;;28.15;;
43676;SDS011;29275;48.800;18.102;2024-03-02T07:03:52;39.15;;;24.60;;
43676;SDS011;29275;48.800;18.102;2024-03-02T07:06:56;36.10;;;21.73;;
43676;SDS011;29275;48.800;18.102;2024-03-02T07:09:59;29.63;;;18.80;;
43676;SDS011;29275;48.800;18.102;2024-03-02T07:13:02;28.95;;;16.70;;
43676;SDS011;29275;48.800;18.102;2024-03-02T07:16:08;20.00;;;13.60;;
43676;SDS011;29275;48.800;18.102;2024-03-02T07:19:42;19.42;;;12.88;;
43676;SDS011;29275;48.800;18.102;2024-03-02T07:22:45;22.85;;;13.30;;
43676;SDS011;29275;48.800;18.102;2024-03-02T07:25:53;21.15;;;14.13;;
43676;SDS011;29275;48.800;18.102;2024-03-02T07:29:17;24.35;;;15.13;;
43676;SDS011;29275;48.800;18.102;2024-03-02T07:32:41;22.75;;;14.13;;
43676;SDS011;29275;48.800;18.102;2024-03-02T07:35:52;24.80;;;13.55;;
43676;SDS011;29275;48.800;18.102;2024-03-02T07:39:04;22.33;;;15.18;;
43676;SDS011;29275;48.800;18.102;2024-03-02T07:42:10;23.35;;;15.18;;
43676;SDS011;29275;48.800;18.102;2024-03-02T07:45:13;26.50;;;13.75;;
43676;SDS011;29275;48.800;18.102;2024-03-02T07:48:16;18.85;;;13.10;;
43676;SDS011;29275;48.800;18.102;2024-03-02T07:51:19;23.50;;;13.95;;
43676;SDS011;29275;48.800;18.102;2024-03-02T07:54:27;21.63;;;13.15;;
43676;SDS011;29275;48.800;18.102;2024-03-02T07:57:31;24.17;;;13.77;;
43676;SDS011;29275;48.800;18.102;2024-03-02T08:00:34;19.92;;;13.43;;
43676;SDS011;29275;48.800;18.102;2024-03-02T08:03:38;23.80;;;14.55;;
43676;SDS011;29275;48.800;18.102;2024-03-02T08:06:40;21.40;;;13.77;;
43676;SDS011;29275;48.800;18.102;2024-03-02T08:09:43;24.48;;;13.98;;
43676;SDS011;29275;48.800;18.102;2024-03-02T08:12:46;21.85;;;13.93;;
43676;SDS011;29275;48.800;18.102;2024-03-02T08:15:56;24.80;;;13.57;;
43676;SDS011;29275;48.800;18.102;2024-03-02T08:18:59;25.58;;;15.18;;
43676;SDS011;29275;48.800;18.102;2024-03-02T08:22:03;24.88;;;15.30;;
43676;SDS011;29275;48.800;18.102;2024-03-02T08:25:09;34.30;;;21.05;;
43676;SDS011;29275;48.800;18.102;2024-03-02T08:28:12;35.88;;;24.08;;
43676;SDS011;29275;48.800;18.102;2024-03-02T08:31:15;35.13;;;20.25;;
43676;SDS011;29275;48.800;18.102;2024-03-02T08:34:18;34.53;;;21.90;;
43676;SDS011;29275;48.800;18.102;2024-03-02T08:37:21;35.80;;;22.30;;
43676;SDS011;29275;48.800;18.102;2024-03-02T08:40:27;34.63;;;22.90;;
43676;SDS011;29275;48.800;18.102;2024-03-02T08:43:32;38.22;;;25.52;;
43676;SDS011;29275;48.800;18.102;2024-03-02T08:46:35;34.25;;;23.15;;
43676;SDS011;29275;48.800;18.102;2024-03-02T08:49:39;37.33;;;24.38;;
43676;SDS011;29275;48.800;18.102;2024-03-02T08:52:42;39.05;;;26.52;;
43676;SDS011;29275;48.800;18.102;2024-03-02T08:56:05;65.65;;;44.80;;
43676;SDS011;29275;48.800;18.102;2024-03-02T08:59:08;51.20;;;39.50;;
43676;SDS011;29275;48.800;18.102;2024-03-02T09:02:12;37.63;;;27.25;;
43676;SDS011;29275;48.800;18.102;2024-03-02T09:05:18;32.83;;;24.52;;
43676;SDS011;29275;48.800;18.102;2024-03-02T09:08:21;48.60;;;33.35;;
43676;SDS011;29275;48.800;18.102;2024-03-02T09:11:27;46.90;;;28.63;;
43676;SDS011;29275;48.800;18.102;2024-03-02T09:14:31;38.22;;;27.98;;
43676;SDS011;29275;48.800;18.102;2024-03-02T09:17:56;72.65;;;48.75;;
43676;SDS011;29275;48.800;18.102;2024-03-02T09:21:21;49.00;;;32.13;;
43676;SDS011;29275;48.800;18.102;2024-03-02T09:24:45;41.10;;;28.08;;
43676;SDS011;29275;48.800;18.102;2024-03-02T09:28:08;45.10;;;31.48;;
43676;SDS011;29275;48.800;18.102;2024-03-02T09:31:18;34.25;;;23.23;;
43676;SDS011;29275;48.800;18.102;2024-03-02T09:34:36;43.25;;;27.17;;
43676;SDS011;29275;48.800;18.102;2024-03-02T09:37:48;38.10;;;26.15;;
43676;SDS011;29275;48.800;18.102;2024-03-02T09:41:22;34.35;;;22.85;;
43676;SDS011;29275;48.800;18.102;2024-03-02T09:44:35;29.13;;;21.25;;
43676;SDS011;29275;48.800;18.102;2024-03-02T09:47:38;32.88;;;22.48;;
43676;SDS011;29275;48.800;18.102;2024-03-02T09:50:44;36.33;;;25.58;;
43676;SDS011;29275;48.800;18.102;2024-03-02T09:53:56;45.08;;;33.78;;
43676;SDS011;29275;48.800;18.102;2024-03-02T10:01:09;30.55;;;21.42;;
43676;SDS011;29275;48.800;18.102;2024-03-02T10:04:25;27.02;;;19.52;;
43676;SDS011;29275;48.800;18.102;2024-03-02T10:07:35;33.95;;;21.63;;
43676;SDS011;29275;48.800;18.102;2024-03-02T10:10:54;30.92;;;20.10;;
43676;SDS011;29275;48.800;18.102;2024-03-02T10:14:17;31.98;;;19.98;;
43676;SDS011;29275;48.800;18.102;2024-03-02T10:17:56;31.45;;;20.10;;
43676;SDS011;29275;48.800;18.102;2024-03-02T12:16:01;13.60;;;10.48;;
43676;SDS011;29275;48.800;18.102;2024-03-02T12:19:08;15.00;;;11.80;;
43676;SDS011;29275;48.800;18.102;2024-03-02T12:22:11;13.63;;;10.52;;
43676;SDS011;29275;48.800;18.102;2024-03-02T12:25:14;14.18;;;10.20;;
43676;SDS011;29275;48.800;18.102;2024-03-02T12:28:18;27.10;;;16.50;;
43676;SDS011;29275;48.800;18.102;2024-03-02T12:31:21;17.02;;;11.13;;
43676;SDS011;29275;48.800;18.102;2024-03-02T12:34:24;14.40;;;10.60;;
43676;SDS011;29275;48.800;18.102;2024-03-02T12:37:28;14.10;;;10.27;;
43676;SDS011;29275;48.800;18.102;2024-03-02T12:40:31;14.68;;;9.93;;
43676;SDS011;29275;48.800;18.102;2024-03-02T12:43:34;17.92;;;10.68;;
43676;SDS011;29275;48.800;18.102;2024-03-02T12:46:37;15.05;;;9.98;;
43676;SDS011;29275;48.800;18.102;2024-03-02T12:49:40;16.10;;;10.75;;
43676;SDS011;29275;48.800;18.102;2024-03-02T12:52:43;12.63;;;9.68;;
43676;SDS011;29275;48.800;18.102;2024-03-02T12:55:46;15.55;;;10.40;;
43676;SDS011;29275;48.800;18.102;2024-03-02T12:58:52;14.05;;;9.77;;
43676;SDS011;29275;48.800;18.102;2024-03-02T13:01:56;12.90;;;9.15;;
43676;SDS011;29275;48.800;18.102;2024-03-02T13:05:00;13.85;;;10.13;;
43676;SDS011;29275;48.800;18.102;2024-03-02T13:08:03;18.00;;;9.80;;
43676;SDS011;29275;48.800;18.102;2024-03-02T13:11:07;13.85;;;9.75;;
43676;SDS011;29275;48.800;18.102;2024-03-02T13:14:13;15.82;;;11.15;;
43676;SDS011;29275;48.800;18.102;2024-03-02T13:17:17;14.50;;;10.17;;
43676;SDS011;29275;48.800;18.102;2024-03-02T13:20:20;15.52;;;9.95;;
43676;SDS011;29275;48.800;18.102;2024-03-02T13:23:25;13.98;;;9.15;;
43676;SDS011;29275;48.800;18.102;2024-03-02T13:26:28;12.38;;;8.50;;
43676;SDS011;29275;48.800;18.102;2024-03-02T13:29:31;10.32;;;8.00;;
43676;SDS011;29275;48.800;18.102;2024-03-02T13:32:34;13.20;;;8.95;;
43676;SDS011;29275;48.800;18.102;2024-03-02T13:35:37;12.25;;;8.50;;
43676;SDS011;29275;48.800;18.102;2024-03-02T13:38:40;13.38;;;9.52;;
43676;SDS011;29275;48.800;18.102;2024-03-02T13:41:43;10.98;;;8.13;;
43676;SDS011;29275;48.800;18.102;2024-03-02T13:44:54;10.95;;;7.35;;
43676;SDS011;29275;48.800;18.102;2024-03-02T13:47:57;13.98;;;8.48;;
43676;SDS011;29275;48.800;18.102;2024-03-02T13:51:00;13.05;;;8.85;;
43676;SDS011;29275;48.800;18.102;2024-03-02T13:54:03;10.88;;;8.48;;
43676;SDS011;29275;48.800;18.102;2024-03-02T13:57:06;11.55;;;8.80;;
43676;SDS011;29275;48.800;18.102;2024-03-02T14:00:10;9.30;;;7.80;;
43676;SDS011;29275;48.800;18.102;2024-03-02T14:03:14;11.98;;;8.43;;
43676;SDS011;29275;48.800;18.102;2024-03-02T14:06:18;10.70;;;7.85;;
43676;SDS011;29275;48.800;18.102;2024-03-02T14:09:21;9.75;;;6.80;;
43676;SDS011;29275;48.800;18.102;2024-03-02T14:12:27;8.70;;;7.07;;
43676;SDS011;29275;48.800;18.102;2024-03-02T14:15:30;10.63;;;7.60;;
43676;SDS011;29275;48.800;18.102;2024-03-02T14:18:33;10.02;;;6.88;;
43676;SDS011;29275;48.800;18.102;2024-03-02T14:21:36;10.60;;;6.88;;
43676;SDS011;29275;48.800;18.102;2024-03-02T14:24:40;12.25;;;7.00;;
43676;SDS011;29275;48.800;18.102;2024-03-02T14:27:43;9.88;;;6.47;;
43676;SDS011;29275;48.800;18.102;2024-03-02T14:31:05;11.20;;;7.78;;
43676;SDS011;29275;48.800;18.102;2024-03-02T14:34:08;10.65;;;8.35;;
43676;SDS011;29275;48.800;18.102;2024-03-02T14:37:12;10.48;;;7.80;;
43676;SDS011;29275;48.800;18.102;2024-03-02T14:40:15;9.65;;;7.32;;
43676;SDS011;29275;48.800;18.102;2024-03-02T14:43:18;12.65;;;8.50;;
43676;SDS011;29275;48.800;18.102;2024-03-02T14:46:21;10.85;;;7.80;;
43676;SDS011;29275;48.800;18.102;2024-03-02T14:49:26;10.73;;;6.97;;
43676;SDS011;29275;48.800;18.102;2024-03-02T14:52:29;13.52;;;11.77;;
43676;SDS011;29275;48.800;18.102;2024-03-02T14:55:33;11.25;;;7.57;;
43676;SDS011;29275;48.800;18.102;2024-03-02T14:58:36;10.00;;;7.25;;
43676;SDS011;29275;48.800;18.102;2024-03-02T15:01:39;9.30;;;7.45;;
43676;SDS011;29275;48.800;18.102;2024-03-02T15:04:42;12.10;;;8.00;;
43676;SDS011;29275;48.800;18.102;2024-03-02T15:07:47;11.00;;;7.93;;
43676;SDS011;29275;48.800;18.102;2024-03-02T15:10:50;11.00;;;7.40;;
43676;SDS011;29275;48.800;18.102;2024-03-02T15:13:53;12.93;;;7.45;;
43676;SDS011;29275;48.800;18.102;2024-03-02T15:16:56;14.07;;;8.07;;
43676;SDS011;29275;48.800;18.102;2024-03-02T15:20:00;27.95;;;16.48;;
43676;SDS011;29275;48.800;18.102;2024-03-02T15:23:03;42.58;;;29.38;;
43676;SDS011;29275;48.800;18.102;2024-03-02T15:26:06;14.27;;;9.40;;
43676;SDS011;29275;48.800;18.102;2024-03-02T15:29:11;13.05;;;7.90;;
43676;SDS011;29275;48.800;18.102;2024-03-02T15:32:14;9.10;;;6.88;;
43676;SDS011;29275;48.800;18.102;2024-03-02T15:35:17;10.73;;;7.15;;
43676;SDS011;29275;48.800;18.102;2024-03-02T15:38:20;11.40;;;7.78;;
43676;SDS011;29275;48.800;18.102;2024-03-02T15:41:34;10.20;;;7.28;;
43676;SDS011;29275;48.800;18.102;2024-03-02T15:44:37;12.68;;;9.15;;
43676;SDS011;29275;48.800;18.102;2024-03-02T15:47:42;11.90;;;8.85;;
43676;SDS011;29275;48.800;18.102;2024-03-02T15:50:45;12.30;;;8.63;;
43676;SDS011;29275;48.800;18.102;2024-03-02T15:53:48;11.70;;;8.30;;
43676;SDS011;29275;48.800;18.102;2024-03-02T15:56:51;13.77;;;10.63;;
43676;SDS011;29275;48.800;18.102;2024-03-02T15:59:53;18.20;;;12.82;;
43676;SDS011;29275;48.800;18.102;2024-03-02T16:02:56;14.70;;;9.38;;
43676;SDS011;29275;48.800;18.102;2024-03-02T16:05:59;13.85;;;9.23;;
43676;SDS011;29275;48.800;18.102;2024-03-02T16:09:02;10.27;;;8.20;;
43676;SDS011;29275;48.800;18.102;2024-03-02T16:12:07;14.52;;;8.38;;
43676;SDS011;29275;48.800;18.102;2024-03-02T16:15:10;10.32;;;7.38;;
43676;SDS011;29275;48.800;18.102;2024-03-02T16:18:13;11.77;;;8.65;;
43676;SDS011;29275;48.800;18.102;2024-03-02T16:21:16;12.52;;;8.63;;
43676;SDS011;29275;48.800;18.102;2024-03-02T16:24:19;15.80;;;8.55;;
43676;SDS011;29275;48.800;18.102;2024-03-02T16:27:22;11.68;;;9.02;;
43676;SDS011;29275;48.800;18.102;2024-03-02T16:30:25;11.20;;;8.68;;
43676;SDS011;29275;48.800;18.102;2024-03-02T16:33:28;11.70;;;9.07;;
43676;SDS011;29275;48.800;18.102;2024-03-02T16:36:31;14.30;;;9.95;;
43676;SDS011;29275;48.800;18.102;2024-03-02T16:39:37;12.05;;;8.93;;
43676;SDS011;29275;48.800;18.102;2024-03-02T16:42:40;14.05;;;9.68;;
43676;SDS011;29275;48.800;18.102;2024-03-02T16:45:43;14.45;;;11.38;;
43676;SDS011;29275;48.800;18.102;2024-03-02T16:48:46;18.80;;;13.35;;
43676;SDS011;29275;48.800;18.102;2024-03-02T16:51:49;18.65;;;12.38;;
43676;SDS011;29275;48.800;18.102;2024-03-02T16:54:52;21.05;;;14.27;;
43676;SDS011;29275;48.800;18.102;2024-03-02T16:57:55;18.67;;;14.45;;
43676;SDS011;29275;48.800;18.102;2024-03-02T17:00:58;17.48;;;13.52;;
43676;SDS011;29275;48.800;18.102;2024-03-02T17:04:01;20.40;;;14.65;;
43676;SDS011;29275;48.800;18.102;2024-03-02T17:07:06;18.58;;;14.05;;
43676;SDS011;29275;48.800;18.102;2024-03-02T17:10:09;20.80;;;13.85;;
43676;SDS011;29275;48.800;18.102;2024-03-02T17:13:12;22.42;;;14.18;;
43676;SDS011;29275;48.800;18.102;2024-03-02T17:16:15;24.58;;;14.48;;
43676;SDS011;29275;48.800;18.102;2024-03-02T17:19:20;23.58;;;15.63;;
43676;SDS011;29275;48.800;18.102;2024-03-02T17:22:22;20.13;;;14.27;;
43676;SDS011;29275;48.800;18.102;2024-03-02T17:25:27;19.58;;;13.60;;
43676;SDS011;29275;48.800;18.102;2024-03-02T17:28:30;15.63;;;11.77;;
43676;SDS011;29275;48.800;18.102;2024-03-02T17:31:35;16.23;;;11.23;;
43676;SDS011;29275;48.800;18.102;2024-03-02T17:34:38;18.50;;;11.88;;
43676;SDS011;29275;48.800;18.102;2024-03-02T17:37:41;17.40;;;12.15;;
43676;SDS011;29275;48.800;18.102;2024-03-02T17:40:43;14.80;;;10.30;;
43676;SDS011;29275;48.800;18.102;2024-03-02T17:43:47;13.48;;;8.75;;
43676;SDS011;29275;48.800;18.102;2024-03-02T17:46:49;11.77;;;8.93;;
43676;SDS011;29275;48.800;18.102;2024-03-02T17:49:52;9.68;;;7.32;;
43676;SDS011;29275;48.800;18.102;2024-03-02T17:52:55;12.18;;;7.15;;
43676;SDS011;29275;48.800;18.102;2024-03-02T17:55:58;9.02;;;6.28;;
43676;SDS011;29275;48.800;18.102;2024-03-02T17:59:01;28.98;;;13.45;;
43676;SDS011;29275;48.800;18.102;2024-03-02T18:02:05;34.47;;;19.00;;
43676;SDS011;29275;48.800;18.102;2024-03-02T18:05:09;34.42;;;20.08;;
43676;SDS011;29275;48.800;18.102;2024-03-02T18:08:14;15.40;;;10.38;;
43676;SDS011;29275;48.800;18.102;2024-03-02T18:11:17;17.83;;;10.82;;
43676;SDS011;29275;48.800;18.102;2024-03-02T18:14:21;12.93;;;8.65;;
43676;SDS011;29275;48.800;18.102;2024-03-02T18:17:24;52.47;;;28.30;;
43676;SDS011;29275;48.800;18.102;2024-03-02T18:20:27;21.08;;;15.20;;
43676;SDS011;29275;48.800;18.102;2024-03-02T18:23:30;10.82;;;8.85;;
43676;SDS011;29275;48.800;18.102;2024-03-02T18:26:33;8.73;;;6.22;;
43676;SDS011;29275;48.800;18.102;2024-03-02T18:29:37;8.52;;;6.30;;
43676;SDS011;29275;48.800;18.102;2024-03-02T18:32:40;8.00;;;5.70;;
43676;SDS011;29275;48.800;18.102;2024-03-02T18:35:43;7.35;;;5.80;;
43676;SDS011;29275;48.800;18.102;2024-03-02T18:38:45;7.13;;;5.82;;
43676;SDS011;29275;48.800;18.102;2024-03-02T18:41:48;8.38;;;5.72;;
43676;SDS011;29275;48.800;18.102;2024-03-02T18:44:51;7.93;;;6.35;;
43676;SDS011;29275;48.800;18.102;2024-03-02T18:47:54;7.65;;;5.97;;
43676;SDS011;29275;48.800;18.102;2024-03-02T18:51:04;8.93;;;6.70;;
43676;SDS011;29275;48.800;18.102;2024-03-02T18:54:08;8.98;;;6.88;;
43676;SDS011;29275;48.800;18.102;2024-03-02T18:57:14;8.88;;;6.68;;
43676;SDS011;29275;48.800;18.102;2024-03-02T19:00:17;9.65;;;7.32;;
43676;SDS011;29275;48.800;18.102;2024-03-02T19:03:20;8.73;;;6.90;;
43676;SDS011;29275;48.800;18.102;2024-03-02T19:06:22;8.88;;;7.18;;
43676;SDS011;29275;48.800;18.102;2024-03-02T19:09:25;9.18;;;6.68;;
43676;SDS011;29275;48.800;18.102;2024-03-02T19:12:28;9.32;;;7.22;;
43676;SDS011;29275;48.800;18.102;2024-03-02T19:15:31;9.00;;;7.10;;
43676;SDS011;29275;48.800;18.102;2024-03-02T19:18:34;10.77;;;7.65;;
43676;SDS011;29275;48.800;18.102;2024-03-02T19:21:37;10.32;;;8.27;;
43676;SDS011;29275;48.800;18.102;2024-03-02T19:24:41;11.82;;;9.07;;
43676;SDS011;29275;48.800;18.102;2024-03-02T19:27:44;10.55;;;8.27;;
43676;SDS011;29275;48.800;18.102;2024-03-02T19:30:47;14.20;;;8.65;;
43676;SDS011;29275;48.800;18.102;2024-03-02T19:33:51;13.25;;;9.60;;
43676;SDS011;29275;48.800;18.102;2024-03-02T19:36:54;12.35;;;9.23;;
43676;SDS011;29275;48.800;18.102;2024-03-02T19:39:59;15.02;;;9.75;;
43676;SDS011;29275;48.800;18.102;2024-03-02T19:43:02;13.25;;;9.43;;
43676;SDS011;29275;48.800;18.102;2024-03-02T19:46:05;14.10;;;9.32;;
43676;SDS011;29275;48.800;18.102;2024-03-02T19:49:08;13.93;;;9.70;;
43676;SDS011;29275;48.800;18.102;2024-03-02T19:52:11;12.93;;;9.77;;
43676;SDS011;29275;48.800;18.102;2024-03-02T19:55:14;13.27;;;9.75;;
43676;SDS011;29275;48.800;18.102;2024-03-02T19:58:19;13.02;;;9.75;;